Time;durP1;ratioP1;P1;durP2;ratioP2;P2;SDS_P1;SDS_P2;PMS_P1;PMS_P2;Temp;Humidity;BMP_temperature;BMP_pressure;BME280_temperature;BME280_humidity;BME280_pressure;Samples;Min_cycle;Max_cycle;Signal;HPM_P1;HPM_P2
2021/01/05 00:01:13;;;;;;;36.70;14.83;;;;;;;-0.83;100.00;100852.72;5039446;28;20206;-80
2021/01/05 00:03:39;;;;;;;47.67;16.83;;;;;;;-0.82;100.00;100853.59;5039949;28;20228;-80
2021/01/05 00:06:05;;;;;;;41.83;15.03;;;;;;;-0.83;100.00;100845.03;5022786;28;21011;-80
2021/01/05 00:08:32;;;;;;;43.70;14.83;;;;;;;-0.83;100.00;100846.75;5030103;28;20207;-80
2021/01/05 00:11:03;;;;;;;49.40;17.40;;;;;;;-0.83;100.00;100851.84;5031841;28;20200;-80
2021/01/05 00:13:28;;;;;;;49.73;16.30;;;;;;;-0.83;100.00;100854.41;5029361;28;20224;-79
2021/01/05 00:15:54;;;;;;;50.00;17.07;;;;;;;-0.84;100.00;100856.13;5028769;28;20200;-80
2021/01/05 00:18:20;;;;;;;44.50;15.90;;;;;;;-0.83;100.00;100857.84;5030340;28;20197;-80
2021/01/05 00:20:46;;;;;;;46.43;16.27;;;;;;;-0.81;100.00;100852.75;5026254;28;20557;-80
2021/01/05 00:23:12;;;;;;;44.27;15.20;;;;;;;-0.82;100.00;100853.59;5027924;28;20640;-80
2021/01/05 00:25:38;;;;;;;45.23;15.73;;;;;;;-0.81;100.00;100857.88;5027390;28;20304;-80
2021/01/05 00:28:05;;;;;;;46.03;17.23;;;;;;;-0.82;100.00;100854.47;5028609;28;20308;-80
2021/01/05 00:30:31;;;;;;;47.57;16.50;;;;;;;-0.80;100.00;100857.91;5025532;28;20199;-80
2021/01/05 00:32:56;;;;;;;48.90;16.57;;;;;;;-0.79;100.00;100858.81;5025241;28;20224;-79
2021/01/05 00:35:25;;;;;;;44.57;16.63;;;;;;;-0.79;100.00;100857.09;5023301;28;20196;-80
2021/01/05 00:37:52;;;;;;;51.23;15.57;;;;;;;-0.79;100.00;100851.97;5028714;28;20268;-80
2021/01/05 00:40:20;;;;;;;43.97;15.93;;;;;;;-0.77;100.00;100857.16;5028018;28;20196;-80
2021/01/05 00:42:47;;;;;;;42.90;17.07;;;;;;;-0.79;100.00;100840.88;5028316;28;20209;-80
2021/01/05 00:45:18;;;;;;;42.83;16.53;;;;;;;-0.77;100.00;100846.91;5027295;28;20786;-80
2021/01/05 00:47:44;;;;;;;53.90;16.80;;;;;;;-0.77;100.00;100860.56;5028438;28;20253;-79
2021/01/05 00:50:12;;;;;;;43.47;16.20;;;;;;;-0.78;100.00;100861.38;5028038;28;20230;-80
2021/01/05 00:52:38;;;;;;;50.03;16.97;;;;;;;-0.77;100.00;100862.25;5031525;28;20223;-80
2021/01/05 00:55:07;;;;;;;58.50;17.10;;;;;;;-0.76;100.00;100866.53;5011542;28;20215;-80
2021/01/05 00:57:33;;;;;;;45.83;16.33;;;;;;;-0.77;100.00;100858.00;5011043;28;20547;-80
2021/01/05 01:00:00;;;;;;;44.83;15.37;;;;;;;-0.75;100.00;100855.47;5033283;28;20227;-80
2021/01/05 01:02:26;;;;;;;42.13;14.93;;;;;;;-0.74;100.00;100859.75;5027063;28;20223;-80
2021/01/05 01:04:53;;;;;;;48.03;15.23;;;;;;;-0.74;100.00;100858.91;5012211;28;20220;-80
2021/01/05 01:07:19;;;;;;;48.40;16.33;;;;;;;-0.74;100.00;100856.34;5026209;28;20692;-80
2021/01/05 01:09:45;;;;;;;50.63;17.33;;;;;;;-0.73;100.00;100858.09;5030169;28;20544;-80
2021/01/05 01:12:17;;;;;;;51.07;17.50;;;;;;;-0.72;100.00;100855.56;5011064;28;20227;-79
2021/01/05 01:14:46;;;;;;;48.73;16.73;;;;;;;-0.75;100.00;100849.50;5042306;28;20272;-80
2021/01/05 01:17:16;;;;;;;51.10;16.80;;;;;;;-0.72;100.00;100857.22;5011296;28;20200;-80
2021/01/05 01:19:42;;;;;;;49.90;16.73;;;;;;;-0.73;100.00;100846.13;5008397;28;20215;-79
2021/01/05 01:22:08;;;;;;;41.23;15.60;;;;;;;-0.71;100.00;100858.97;5026318;28;20219;-80
2021/01/05 01:24:35;;;;;;;41.53;15.77;;;;;;;-0.72;100.00;100852.09;5030162;28;20773;-80
2021/01/05 01:27:01;;;;;;;42.33;15.83;;;;;;;-0.71;100.00;100857.28;5004483;28;20391;-80
2021/01/05 01:29:28;;;;;;;42.40;15.87;;;;;;;-0.72;100.00;100853.00;5027723;28;20804;-79
2021/01/05 01:31:56;;;;;;;54.90;17.03;;;;;;;-0.72;100.00;100853.00;5010350;28;20220;-80
2021/01/05 01:34:25;;;;;;;42.43;16.10;;;;;;;-0.72;100.00;100841.88;5007958;28;20640;-80
2021/01/05 01:36:56;;;;;;;42.03;15.70;;;;;;;-0.74;100.00;100848.66;5010529;28;20680;-80
2021/01/05 01:39:23;;;;;;;47.00;16.70;;;;;;;-0.73;100.00;100855.53;5031347;28;20196;-80
2021/01/05 01:41:50;;;;;;;49.90;16.23;;;;;;;-0.71;100.00;100846.16;5032827;28;20271;-79
2021/01/05 01:44:22;;;;;;;44.47;16.07;;;;;;;-0.72;100.00;100845.31;5014503;28;20220;-80
2021/01/05 01:46:52;;;;;;;38.93;14.33;;;;;;;-0.72;100.00;100842.75;5032969;28;20618;-80
2021/01/05 01:49:18;;;;;;;40.33;14.70;;;;;;;-0.74;100.00;100846.09;5031313;28;20321;-79
2021/01/05 01:51:45;;;;;;;43.83;15.97;;;;;;;-0.75;100.00;100840.13;5035811;28;20462;-80
2021/01/05 01:54:49;;;;;;;44.93;15.27;;;;;;;-0.75;100.00;100835.00;5012489;28;20248;-80
2021/01/05 01:57:47;;;;;;;48.63;15.27;;;;;;;-0.76;100.00;100840.94;5032269;28;20255;-80
2021/01/05 02:00:24;;;;;;;37.53;14.43;;;;;;;-0.77;100.00;100836.66;5030446;28;20245;-80
2021/01/05 02:03:12;;;;;;;41.60;16.60;;;;;;;-0.78;100.00;100832.34;5033367;28;20223;-79
2021/01/05 02:05:48;;;;;;;42.90;15.90;;;;;;;-0.78;100.00;100840.88;5013744;28;20585;-80
2021/01/05 02:08:29;;;;;;;43.30;15.07;;;;;;;-0.79;100.00;100828.94;5034338;28;20200;-79
2021/01/05 02:11:22;;;;;;;44.13;15.63;;;;;;;-0.79;100.00;100838.31;5011247;28;20203;-80
2021/01/05 02:14:16;;;;;;;37.97;14.40;;;;;;;-0.80;100.00;100837.44;5014001;28;20212;-80
2021/01/05 02:17:14;;;;;;;42.80;14.40;;;;;;;-0.80;100.00;100832.31;5016024;28;20199;-80
2021/01/05 02:19:46;;;;;;;43.70;15.63;;;;;;;-0.80;100.00;100828.91;5016395;28;20203;-79
2021/01/05 02:22:22;;;;;;;41.87;14.90;;;;;;;-0.81;100.00;100835.72;5002160;28;20707;-80
2021/01/05 02:25:02;;;;;;;41.77;13.47;;;;;;;-0.80;100.00;100834.88;5011551;28;20270;-79
2021/01/05 02:27:32;;;;;;;42.87;14.07;;;;;;;-0.80;100.00;100836.56;5013919;28;20460;-80
2021/01/05 02:30:05;;;;;;;46.23;15.60;;;;;;;-0.80;100.00;100840.00;5031196;28;20192;-79
2021/01/05 02:32:45;;;;;;;40.30;14.10;;;;;;;-0.81;100.00;100838.28;5015705;28;20208;-79
2021/01/05 02:35:36;;;;;;;43.40;15.33;;;;;;;-0.80;100.00;100847.69;5024253;28;20203;-79
2021/01/05 02:38:42;;;;;;;34.30;13.53;;;;;;;-0.79;100.00;100835.75;5033410;28;20195;-79
2021/01/05 02:41:39;;;;;;;40.13;13.40;;;;;;;-0.79;100.00;100835.75;5029857;28;20267;-79
2021/01/05 02:44:34;;;;;;;36.53;14.43;;;;;;;-0.79;100.00;100839.19;5037155;28;20258;-80
2021/01/05 02:48:04;;;;;;;35.50;14.07;;;;;;;-0.79;100.00;100833.19;5031211;28;20224;-79
2021/01/05 02:51:18;;;;;;;38.40;14.23;;;;;;;-0.78;100.00;100840.03;4921373;28;20211;-80
2021/01/05 02:54:39;;;;;;;42.97;14.03;;;;;;;-0.80;100.00;100829.75;5037395;28;20218;-80
2021/01/05 02:57:49;;;;;;;36.07;13.93;;;;;;;-0.80;100.00;100827.19;5033285;28;20237;-80
2021/01/05 03:00:57;;;;;;;36.63;13.60;;;;;;;-0.78;100.00;100830.66;5029867;28;20211;-80
2021/01/05 03:03:45;;;;;;;41.67;13.50;;;;;;;-0.79;100.00;100825.53;5030939;28;20644;-79
2021/01/05 03:06:38;;;;;;;32.33;12.97;;;;;;;-0.80;100.00;100836.56;5033724;28;20215;-79
2021/01/05 03:09:59;;;;;;;38.77;13.67;;;;;;;-0.80;100.00;100824.63;5037291;28;20226;-80
2021/01/05 03:12:58;;;;;;;35.47;13.20;;;;;;;-0.81;100.00;100822.03;5030958;28;20659;-79
2021/01/05 03:15:48;;;;;;;42.67;14.07;;;;;;;-0.81;100.00;100816.91;5037244;28;20210;-79
2021/01/05 03:18:45;;;;;;;35.47;13.33;;;;;;;-0.82;100.00;100822.88;5031868;28;20274;-79
2021/01/05 03:21:34;;;;;;;33.47;13.80;;;;;;;-0.81;100.00;100822.91;5033401;28;20243;-79
2021/01/05 03:24:20;;;;;;;40.33;13.27;;;;;;;-0.84;100.00;100817.72;5032512;28;20214;-79
2021/01/05 03:27:07;;;;;;;41.87;14.10;;;;;;;-0.83;100.00;100816.88;5037842;28;20222;-79
2021/01/05 03:29:54;;;;;;;39.30;13.27;;;;;;;-0.83;100.00;100826.25;5039886;28;20611;-79
2021/01/05 03:32:39;;;;;;;36.73;12.93;;;;;;;-0.84;100.00;100816.88;5036767;28;20226;-80
2021/01/05 03:35:26;;;;;;;33.87;13.37;;;;;;;-0.85;100.00;100812.56;5040340;28;21318;-79
2021/01/05 03:38:12;;;;;;;41.57;14.13;;;;;;;-0.86;100.00;100809.16;5033354;28;20441;-79
2021/01/05 03:40:57;;;;;;;38.57;13.13;;;;;;;-0.87;100.00;100816.78;5028630;28;20223;-79
2021/01/05 03:43:41;;;;;;;33.67;12.83;;;;;;;-0.86;100.00;100818.50;5026092;28;20239;-79
2021/01/05 03:46:26;;;;;;;33.07;12.83;;;;;;;-0.87;100.00;100819.34;5024314;28;20593;-80
2021/01/05 03:49:11;;;;;;;37.63;14.40;;;;;;;-0.88;100.00;100818.50;5027074;28;20253;-79
2021/01/05 03:51:56;;;;;;;32.17;12.67;;;;;;;-0.88;100.00;100818.50;5028569;28;20282;-80
2021/01/05 03:54:41;;;;;;;30.37;12.70;;;;;;;-0.87;100.00;100817.63;5025651;28;20262;-80
2021/01/05 03:57:25;;;;;;;38.27;14.03;;;;;;;-0.90;100.00;100817.56;5028719;28;20219;-80
2021/01/05 04:00:15;;;;;;;34.47;12.67;;;;;;;-0.90;100.00;100817.56;5024182;28;20734;-80
2021/01/05 04:02:41;;;;;;;41.27;12.73;;;;;;;-0.89;100.00;100821.00;5024231;28;21181;-80
2021/01/05 04:05:09;;;;;;;37.63;13.80;;;;;;;-0.89;100.00;100818.44;5024482;28;20219;-80
2021/01/05 04:07:35;;;;;;;35.20;12.97;;;;;;;-0.92;100.00;100808.97;5029031;28;20201;-80
2021/01/05 04:10:01;;;;;;;31.97;12.33;;;;;;;-0.91;100.00;100820.97;5026273;28;20667;-80
2021/01/05 04:12:27;;;;;;;36.57;13.90;;;;;;;-0.92;100.00;100823.47;5026006;28;20290;-79
2021/01/05 04:14:53;;;;;;;33.63;12.27;;;;;;;-0.94;100.00;100818.31;5024846;28;20200;-80
2021/01/05 04:17:19;;;;;;;36.00;13.50;;;;;;;-0.94;100.00;100823.44;5026811;28;20203;-79
2021/01/05 04:19:44;;;;;;;34.70;12.93;;;;;;;-0.94;100.00;100825.16;5025734;28;20210;-79
2021/01/05 04:22:11;;;;;;;38.97;13.60;;;;;;;-0.94;100.00;100818.31;5026572;28;20258;-80
2021/01/05 04:24:37;;;;;;;40.07;13.70;;;;;;;-0.94;100.00;100815.75;5027774;28;20696;-80
2021/01/05 04:27:04;;;;;;;35.53;13.43;;;;;;;-0.96;100.00;100815.72;5024600;28;20208;-80
2021/01/05 04:29:29;;;;;;;41.40;13.83;;;;;;;-0.96;100.00;100814.88;5023511;28;20231;-79
2021/01/05 04:31:55;;;;;;;36.23;13.93;;;;;;;-0.96;100.00;100817.44;5024285;28;20246;-80
2021/01/05 04:34:21;;;;;;;33.50;14.67;;;;;;;-0.94;100.00;100812.34;5027684;28;20196;-80
2021/01/05 04:36:47;;;;;;;39.40;13.67;;;;;;;-0.95;100.00;100819.13;5023999;28;20205;-80
2021/01/05 04:39:13;;;;;;;39.13;15.00;;;;;;;-0.96;100.00;100823.41;5028787;28;20249;-80
2021/01/05 04:41:48;;;;;;;42.23;14.43;;;;;;;-0.93;100.00;100821.75;5025903;28;20255;-80
2021/01/05 04:44:16;;;;;;;34.00;13.47;;;;;;;-0.92;100.00;100820.94;5031391;28;20211;-79
2021/01/05 04:47:02;;;;;;;38.57;13.33;;;;;;;-0.94;100.00;100818.31;5029528;28;20825;-80
2021/01/05 04:50:04;;;;;;;34.63;11.87;;;;;;;-0.94;100.00;100815.75;5033392;28;20830;-80
2021/01/05 04:52:37;;;;;;;35.53;11.57;;;;;;;-0.95;100.00;100816.59;5028534;28;20227;-79
2021/01/05 04:55:06;;;;;;;34.47;12.87;;;;;;;-0.94;100.00;100809.78;5031625;28;20200;-80
2021/01/05 04:57:36;;;;;;;36.50;13.47;;;;;;;-0.96;100.00;100810.59;5029633;28;20250;-80
2021/01/05 05:00:07;;;;;;;34.93;13.13;;;;;;;-0.94;100.00;100809.78;5030797;28;20219;-80
2021/01/05 05:02:43;;;;;;;34.30;12.73;;;;;;;-0.93;100.00;100803.81;5027501;28;20247;-80
2021/01/05 05:05:53;;;;;;;29.37;12.43;;;;;;;-0.94;100.00;100813.22;5012885;28;20230;-80
2021/01/05 05:08:37;;;;;;;33.47;13.40;;;;;;;-0.93;100.00;100808.94;5026923;28;20564;-80
2021/01/05 05:11:07;;;;;;;29.17;12.17;;;;;;;-0.93;100.00;100809.84;5029188;28;23679;-80
2021/01/05 05:13:44;;;;;;;31.87;12.07;;;;;;;-0.91;100.00;100804.75;5029097;28;20239;-79
2021/01/05 05:16:23;;;;;;;38.57;13.73;;;;;;;-0.92;100.00;100808.97;5030598;28;20314;-80
2021/01/05 05:19:04;;;;;;;33.87;14.60;;;;;;;-0.93;100.00;100797.03;5026873;28;20204;-80
2021/01/05 05:21:36;;;;;;;40.40;13.60;;;;;;;-0.92;100.00;100805.56;5029263;28;20250;-80
2021/01/05 05:24:11;;;;;;;30.13;12.83;;;;;;;-0.94;100.00;100808.09;5028516;28;20626;-80
2021/01/05 05:26:43;;;;;;;33.27;12.10;;;;;;;-0.97;100.00;100800.31;5030347;28;20196;-80
2021/01/05 05:29:21;;;;;;;48.47;14.70;;;;;;;-0.97;100.00;100808.00;5025332;28;20676;-80
2021/01/05 05:31:49;;;;;;;34.90;13.03;;;;;;;-0.99;100.00;100812.22;5027978;28;20756;-80
2021/01/05 05:34:22;;;;;;;35.90;12.30;;;;;;;-0.98;100.00;100807.16;5025917;28;20707;-80
2021/01/05 05:37:02;;;;;;;35.10;13.20;;;;;;;-0.96;100.00;100812.31;5031828;28;20215;-80
2021/01/05 05:40:00;;;;;;;42.77;13.20;;;;;;;-0.98;100.00;100807.16;5028847;28;20210;-80
2021/01/05 05:43:01;;;;;;;34.83;12.40;;;;;;;-1.01;100.00;100814.75;5031761;28;20277;-80
2021/01/05 05:45:32;;;;;;;38.67;13.00;;;;;;;-1.01;100.00;100809.63;4983305;28;20239;-80
2021/01/05 05:48:02;;;;;;;31.73;12.27;;;;;;;-1.00;100.00;100826.72;5028239;28;20207;-80
2021/01/05 05:50:36;;;;;;;39.33;13.80;;;;;;;-1.00;100.00;100813.06;5029443;28;20207;-80
2021/01/05 05:53:08;;;;;;;38.27;13.37;;;;;;;-1.02;100.00;100809.59;5027204;28;20496;-80
2021/01/05 05:55:44;;;;;;;28.97;12.23;;;;;;;-1.02;100.00;100815.59;5027480;28;21335;-80
2021/01/05 05:58:11;;;;;;;32.83;12.70;;;;;;;-1.02;100.00;100807.91;5029037;28;20203;-80
2021/01/05 06:00:40;;;;;;;37.70;13.40;;;;;;;-1.03;100.00;100801.06;5025809;28;20200;-80
2021/01/05 06:03:11;;;;;;;31.70;11.67;;;;;;;-1.05;100.00;100807.84;5029879;28;20212;-80
2021/01/05 06:05:38;;;;;;;38.60;12.80;;;;;;;-1.03;100.00;100806.16;5024918;28;20219;-80
2021/01/05 06:08:05;;;;;;;35.33;12.87;;;;;;;-1.04;100.00;100803.56;5026315;28;20197;-80
2021/01/05 06:10:31;;;;;;;32.43;12.13;;;;;;;-1.05;100.00;100801.84;5023144;28;20240;-80
2021/01/05 06:12:57;;;;;;;35.50;12.73;;;;;;;-1.05;100.00;100801.84;5030303;28;20227;-80
2021/01/05 06:15:24;;;;;;;32.87;13.13;;;;;;;-1.06;100.00;100811.22;5025604;28;20203;-80
2021/01/05 06:17:51;;;;;;;33.13;12.63;;;;;;;-1.03;100.00;100802.75;5025485;28;20676;-80
2021/01/05 06:20:17;;;;;;;37.00;13.67;;;;;;;-1.05;100.00;100809.53;5026305;28;20201;-80
2021/01/05 06:22:43;;;;;;;39.63;13.00;;;;;;;-1.05;100.00;100807.84;5030658;28;20220;-80
2021/01/05 06:25:11;;;;;;;31.13;12.33;;;;;;;-1.03;100.00;100813.00;5028952;28;20477;-80
2021/01/05 06:27:37;;;;;;;31.53;12.83;;;;;;;-1.04;100.00;100804.47;5030033;28;20290;-80
2021/01/05 06:30:06;;;;;;;37.00;13.73;;;;;;;-1.03;100.00;100815.56;5030000;28;20212;-80
2021/01/05 06:32:32;;;;;;;29.47;12.67;;;;;;;-1.06;100.00;100811.22;5023051;28;20311;-80
2021/01/05 06:34:58;;;;;;;32.57;12.53;;;;;;;-1.05;100.00;100812.97;5029537;28;20584;-80
2021/01/05 06:37:24;;;;;;;40.50;13.47;;;;;;;-1.06;100.00;100816.31;5027238;28;20219;-80
2021/01/05 06:39:50;;;;;;;30.40;13.43;;;;;;;-1.06;100.00;100811.22;5032729;28;20209;-80
2021/01/05 06:42:16;;;;;;;30.87;12.97;;;;;;;-1.06;100.00;100811.22;5009188;28;20235;-80
2021/01/05 06:44:44;;;;;;;28.50;12.43;;;;;;;-1.04;100.00;100817.25;5032336;28;20591;-80
2021/01/05 06:47:10;;;;;;;32.40;11.83;;;;;;;-1.04;100.00;100817.25;5026306;28;20264;-80
2021/01/05 06:49:36;;;;;;;31.90;13.00;;;;;;;-1.03;100.00;100823.22;5031817;28;20683;-80
2021/01/05 06:52:04;;;;;;;41.27;13.47;;;;;;;-1.04;100.00;100824.03;5028527;28;20221;-80
2021/01/05 06:54:30;;;;;;;32.40;12.37;;;;;;;-1.04;100.00;100822.38;5031699;28;20600;-79
2021/01/05 06:56:58;;;;;;;33.73;12.33;;;;;;;-1.04;100.00;100824.03;5032298;28;20212;-80
2021/01/05 06:59:25;;;;;;;26.87;11.77;;;;;;;-1.03;100.00;100829.22;5038159;28;20858;-79
2021/01/05 07:01:53;;;;;;;39.00;12.80;;;;;;;-1.03;100.00;100829.22;5034810;28;20225;-79
2021/01/05 07:04:19;;;;;;;32.37;12.03;;;;;;;-1.03;100.00;100826.66;5036533;28;20215;-80
2021/01/05 07:06:46;;;;;;;36.57;12.07;;;;;;;-1.03;100.00;100829.22;5039472;28;20212;-80
2021/01/05 07:09:14;;;;;;;34.57;12.37;;;;;;;-1.03;100.00;100831.75;5034481;28;20604;-80
2021/01/05 07:11:39;;;;;;;29.37;12.00;;;;;;;-1.04;100.00;100832.63;5032373;28;20553;-80
2021/01/05 07:14:05;;;;;;;34.43;12.80;;;;;;;-1.03;100.00;100841.16;5025067;28;20212;-80
2021/01/05 07:16:31;;;;;;;31.67;11.50;;;;;;;-1.04;100.00;100837.72;5030852;28;20215;-80
2021/01/05 07:18:57;;;;;;;24.53;11.17;;;;;;;-1.03;100.00;100833.47;5024755;28;21236;-80
2021/01/05 07:21:23;;;;;;;29.63;12.37;;;;;;;-1.03;100.00;100830.91;5028955;28;20207;-80
2021/01/05 07:23:49;;;;;;;32.47;12.57;;;;;;;-1.03;100.00;100836.03;5023449;28;20200;-80
2021/01/05 07:26:16;;;;;;;28.47;11.87;;;;;;;-1.03;100.00;100836.03;5026072;28;20314;-80
2021/01/05 07:28:42;;;;;;;28.47;11.70;;;;;;;-1.03;100.00;100838.59;5021864;28;20212;-80
2021/01/05 07:31:08;;;;;;;28.83;11.73;;;;;;;-1.01;100.00;100834.38;5026447;28;20279;-80
2021/01/05 07:33:34;;;;;;;30.00;12.17;;;;;;;-1.01;100.00;100836.94;5024895;28;20235;-80
2021/01/05 07:36:02;;;;;;;29.57;11.50;;;;;;;-1.02;100.00;100837.75;5029199;28;20196;-80
2021/01/05 07:38:28;;;;;;;31.10;12.53;;;;;;;-1.04;100.00;100830.06;5025568;28;20679;-80
2021/01/05 07:40:54;;;;;;;26.30;11.60;;;;;;;-1.03;100.00;100831.75;5023683;28;20196;-80
2021/01/05 07:43:21;;;;;;;30.00;12.77;;;;;;;-1.04;100.00;100832.63;5009209;28;20224;-80
2021/01/05 07:45:47;;;;;;;28.80;12.27;;;;;;;-1.03;100.00;100838.59;5024365;28;20219;-80
2021/01/05 07:48:12;;;;;;;31.23;11.57;;;;;;;-1.03;100.00;100847.13;5003498;28;20298;-80
2021/01/05 07:50:39;;;;;;;30.53;12.63;;;;;;;-1.00;100.00;100841.22;5023391;28;20200;-80
2021/01/05 07:53:05;;;;;;;28.93;12.40;;;;;;;-0.99;100.00;100848.91;5027855;28;20228;-80
2021/01/05 07:55:32;;;;;;;33.67;12.60;;;;;;;-1.01;100.00;100840.34;5025635;28;20196;-80
2021/01/05 07:57:58;;;;;;;28.50;12.47;;;;;;;-1.01;100.00;100848.03;5027120;28;20298;-80
2021/01/05 08:00:27;;;;;;;31.47;11.70;;;;;;;-1.00;100.00;100847.22;5022544;28;20269;-80
2021/01/05 08:02:54;;;;;;;27.57;12.10;;;;;;;-1.01;100.00;100847.16;5030911;28;20231;-80
2021/01/05 08:05:22;;;;;;;28.93;11.83;;;;;;;-1.00;100.00;100851.47;5026472;28;20238;-80
2021/01/05 08:07:49;;;;;;;28.23;11.07;;;;;;;-1.01;100.00;100850.59;5010605;28;20227;-80
2021/01/05 08:10:17;;;;;;;23.53;11.27;;;;;;;-1.00;100.00;100847.22;5027640;28;20196;-80
2021/01/05 08:12:43;;;;;;;29.97;11.73;;;;;;;-0.99;100.00;100846.34;5026969;28;20211;-80
2021/01/05 08:15:12;;;;;;;29.53;11.43;;;;;;;-0.98;100.00;100847.25;5028530;28;20203;-80
2021/01/05 08:17:39;;;;;;;29.40;11.77;;;;;;;-1.01;100.00;100842.91;5026638;28;20742;-80
2021/01/05 08:20:06;;;;;;;30.80;11.87;;;;;;;-1.01;100.00;100842.03;5028953;28;20223;-81
2021/01/05 08:22:32;;;;;;;26.03;10.20;;;;;;;-1.00;100.00;100844.66;5029956;28;20223;-80
2021/01/05 08:24:58;;;;;;;27.70;11.80;;;;;;;-1.01;100.00;100848.03;5031254;28;20212;-80
2021/01/05 08:27:24;;;;;;;26.33;11.23;;;;;;;-1.01;100.00;100845.47;5026518;28;20215;-81
2021/01/05 08:29:49;;;;;;;28.13;12.37;;;;;;;-0.99;100.00;100846.34;5028756;28;20204;-80
2021/01/05 08:32:15;;;;;;;23.47;11.10;;;;;;;-0.97;100.00;100848.97;5024974;28;20318;-81
2021/01/05 08:34:43;;;;;;;28.57;12.07;;;;;;;-0.97;100.00;100852.41;5028516;28;20204;-81
2021/01/05 08:37:09;;;;;;;25.90;11.43;;;;;;;-0.97;100.00;100844.72;5023787;28;20258;-80
2021/01/05 08:39:35;;;;;;;29.20;12.00;;;;;;;-0.99;100.00;100851.47;5027936;28;20192;-80
2021/01/05 08:42:00;;;;;;;26.47;11.37;;;;;;;-0.98;100.00;100837.88;5025385;28;20263;-81
2021/01/05 08:44:26;;;;;;;26.77;11.03;;;;;;;-0.97;100.00;100844.72;5027628;28;20220;-81
2021/01/05 08:46:59;;;;;;;24.83;10.80;;;;;;;-0.98;100.00;100837.88;5025128;28;20243;-80
2021/01/05 08:49:25;;;;;;;28.53;11.50;;;;;;;-0.93;100.00;100842.22;5027008;28;20510;-80
2021/01/05 08:51:52;;;;;;;29.97;11.10;;;;;;;-0.95;100.00;100844.75;5009175;28;20230;-81
2021/01/05 08:54:18;;;;;;;28.60;11.73;;;;;;;-0.96;100.00;100846.44;5011065;28;20691;-80
2021/01/05 08:56:44;;;;;;;24.90;10.07;;;;;;;-0.96;100.00;100843.03;5028599;28;20298;-80
2021/01/05 08:59:10;;;;;;;24.20;10.30;;;;;;;-0.94;100.00;100843.06;5025111;28;20672;-80
2021/01/05 09:01:36;;;;;;;27.53;10.97;;;;;;;-0.94;100.00;100840.50;5029203;28;20235;-80
2021/01/05 09:04:02;;;;;;;28.17;10.43;;;;;;;-0.93;100.00;100834.53;5016453;28;20286;-81
2021/01/05 09:06:27;;;;;;;22.03;9.63;;;;;;;-0.91;100.00;100843.16;5025595;28;20268;-80
2021/01/05 09:08:54;;;;;;;25.13;11.20;;;;;;;-0.93;100.00;100834.53;5023060;28;20236;-80
2021/01/05 09:11:23;;;;;;;26.10;12.30;;;;;;;-0.92;100.00;100829.47;5008580;28;20207;-80
2021/01/05 09:13:49;;;;;;;25.93;12.07;;;;;;;-0.90;100.00;100834.63;5022582;28;20203;-80
2021/01/05 09:16:26;;;;;;;28.93;13.23;;;;;;;-0.92;100.00;100818.38;5025902;28;20228;-80
2021/01/05 09:18:52;;;;;;;28.93;12.93;;;;;;;-0.91;100.00;100823.53;5021175;28;20238;-80
2021/01/05 09:21:22;;;;;;;28.40;12.67;;;;;;;-0.91;100.00;100826.09;5007293;28;20368;-81
2021/01/05 09:23:48;;;;;;;23.73;10.53;;;;;;;-0.94;100.00;100828.56;5022585;28;20565;-81
2021/01/05 09:26:20;;;;;;;22.23;9.97;;;;;;;-0.93;100.00;100832.88;5024151;28;20219;-80
2021/01/05 09:28:46;;;;;;;22.07;10.90;;;;;;;-0.91;100.00;100832.91;5024049;28;20572;-81
2021/01/05 09:31:12;;;;;;;22.60;10.67;;;;;;;-0.93;100.00;100826.84;5023739;28;20236;-80
2021/01/05 09:33:38;;;;;;;23.30;10.20;;;;;;;-0.90;100.00;100829.50;5024490;28;20215;-80
2021/01/05 09:36:05;;;;;;;21.80;9.87;;;;;;;-0.92;100.00;100826.91;5022785;28;20250;-81
2021/01/05 09:38:30;;;;;;;25.17;11.50;;;;;;;-0.90;100.00;100832.06;5020934;28;20719;-81
2021/01/05 09:40:56;;;;;;;31.23;11.57;;;;;;;-0.89;100.00;100828.69;5008481;28;20220;-80
2021/01/05 09:43:23;;;;;;;20.83;10.33;;;;;;;-0.89;100.00;100826.13;5019816;28;20695;-80
2021/01/05 09:45:49;;;;;;;25.43;10.97;;;;;;;-0.84;100.00;100824.53;5022304;28;20220;-80
2021/01/05 09:48:16;;;;;;;24.23;10.20;;;;;;;-0.89;100.00;100821.88;5024240;28;20250;-80
2021/01/05 09:50:45;;;;;;;26.67;10.63;;;;;;;-0.88;100.00;100821.03;5022764;28;20207;-80
2021/01/05 09:53:12;;;;;;;25.53;10.90;;;;;;;-0.88;100.00;100821.03;5026410;28;20231;-80
2021/01/05 09:55:38;;;;;;;30.50;10.33;;;;;;;-0.85;100.00;100822.81;5023115;28;20200;-80
2021/01/05 09:58:05;;;;;;;24.23;10.80;;;;;;;-0.84;100.00;100821.97;5023686;28;20208;-81
2021/01/05 10:00:31;;;;;;;24.67;10.47;;;;;;;-0.84;100.00;100816.88;5027769;28;20651;-80
2021/01/05 10:02:57;;;;;;;27.60;11.13;;;;;;;-0.82;100.00;100823.72;5010170;28;20630;-80
2021/01/05 10:05:23;;;;;;;29.97;12.47;;;;;;;-0.80;100.00;100818.66;5027851;28;20608;-80
2021/01/05 10:07:50;;;;;;;25.40;12.13;;;;;;;-0.82;100.00;100810.06;5027424;28;20291;-81
2021/01/05 10:10:18;;;;;;;27.33;12.70;;;;;;;-0.78;100.00;100822.09;5025620;28;22282;-80
2021/01/05 10:12:44;;;;;;;30.87;13.30;;;;;;;-0.79;100.00;100817.84;5026593;28;20223;-80
2021/01/05 10:15:11;;;;;;;31.90;12.77;;;;;;;-0.83;100.00;100814.31;5025776;28;20271;-80
2021/01/05 10:17:38;;;;;;;28.70;11.37;;;;;;;-0.84;100.00;100812.59;5027512;28;20204;-81
2021/01/05 10:20:05;;;;;;;31.63;13.10;;;;;;;-0.82;100.00;100815.19;5033700;28;20565;-80
2021/01/05 10:22:31;;;;;;;26.77;12.13;;;;;;;-0.79;100.00;100812.72;5028081;28;20231;-80
2021/01/05 10:24:57;;;;;;;24.97;12.20;;;;;;;-0.79;100.00;100811.00;5030896;28;20220;-81
2021/01/05 10:27:23;;;;;;;29.37;12.50;;;;;;;-0.76;100.00;100807.63;5035653;28;20200;-80
2021/01/05 10:29:50;;;;;;;36.40;15.70;;;;;;;-0.80;100.00;100816.94;5047906;28;20211;-80
2021/01/05 10:32:16;;;;;;;33.20;13.83;;;;;;;-0.79;100.00;100810.16;5045388;28;20236;-80
2021/01/05 10:34:42;;;;;;;35.77;15.03;;;;;;;-0.77;100.00;100805.94;5045670;28;20200;-80
2021/01/05 10:37:10;;;;;;;30.93;12.67;;;;;;;-0.75;100.00;100806.81;5044148;28;20604;-80
2021/01/05 10:39:36;;;;;;;25.33;10.90;;;;;;;-0.76;100.00;100802.53;5046338;28;20192;-80
2021/01/05 10:42:03;;;;;;;24.37;10.03;;;;;;;-0.72;100.00;100794.09;5031660;28;20238;-81
2021/01/05 10:44:29;;;;;;;27.70;11.33;;;;;;;-0.69;100.00;100791.59;5010894;28;20201;-81
2021/01/05 10:46:59;;;;;;;25.47;10.60;;;;;;;-0.67;100.00;100796.75;5028426;28;20212;-80
2021/01/05 10:49:25;;;;;;;30.87;11.43;;;;;;;-0.68;100.00;100798.44;5032664;28;20200;-81
2021/01/05 10:51:53;;;;;;;28.30;11.23;;;;;;;-0.65;100.00;100792.50;5029679;28;20842;-80
2021/01/05 10:54:21;;;;;;;32.40;10.57;;;;;;;-0.62;100.00;100792.59;5029709;28;20200;-81
2021/01/05 10:56:55;;;;;;;29.73;11.13;;;;;;;-0.67;100.00;100794.19;5031067;28;20217;-81
2021/01/05 10:59:21;;;;;;;29.70;11.70;;;;;;;-0.62;100.00;100787.47;5009676;28;20556;-81
2021/01/05 11:01:47;;;;;;;27.67;10.77;;;;;;;-0.54;100.00;100775.72;5030698;28;20572;-81
2021/01/05 11:04:13;;;;;;;21.30;10.47;;;;;;;-0.51;100.00;100783.47;5024978;28;20197;-80
2021/01/05 11:06:39;;;;;;;33.80;11.30;;;;;;;-0.53;100.00;100779.97;5027162;28;20685;-81
2021/01/05 11:09:06;;;;;;;27.63;11.77;;;;;;;-0.57;100.00;100789.28;5025899;28;20204;-81
2021/01/05 11:11:32;;;;;;;23.60;11.03;;;;;;;-0.60;100.00;100784.13;5032840;28;20688;-81
2021/01/05 11:13:58;;;;;;;26.63;10.93;;;;;;;-0.60;100.00;100779.00;5028835;28;20196;-81
2021/01/05 11:16:24;;;;;;;29.37;11.53;;;;;;;-0.61;100.00;100784.09;5011574;28;20692;-80
2021/01/05 11:18:49;;;;;;;29.00;11.70;;;;;;;-0.61;100.00;100776.41;5030306;28;20212;-81
2021/01/05 11:21:16;;;;;;;27.53;12.00;;;;;;;-0.60;100.00;100776.44;5030261;28;20203;-81
2021/01/05 11:23:42;;;;;;;26.73;10.90;;;;;;;-0.62;100.00;100772.97;5030559;28;20247;-81